createdAt,value
2022-09-02T00:00:12.819Z,100.00
2022-09-02T00:02:47.107Z,100.00
2022-09-02T00:05:14.185Z,100.00
2022-09-02T00:07:47.010Z,100.00
2022-09-02T00:10:13.798Z,100.00
2022-09-02T00:12:47.025Z,100.00
2022-09-02T00:15:13.729Z,100.00
2022-09-02T00:17:46.996Z,100.00
2022-09-02T00:20:14.098Z,100.00
2022-09-02T00:22:48.023Z,100.00
2022-09-02T00:25:20.992Z,100.00
2022-09-02T00:27:47.915Z,100.00
2022-09-02T00:30:27.998Z,100.00
2022-09-02T00:32:54.638Z,100.00
2022-09-02T00:35:28.008Z,100.00
2022-09-02T00:38:00.991Z,100.00
2022-09-02T00:40:29.090Z,100.00
2022-09-02T00:43:03.008Z,100.00
2022-09-02T00:45:36.072Z,100.00
2022-09-02T00:48:02.956Z,100.00
2022-09-02T00:50:34.200Z,100.00
2022-09-02T00:53:14.053Z,100.00
2022-09-02T00:55:45.035Z,100.00
2022-09-02T00:58:31.991Z,100.00
2022-09-02T01:01:00.330Z,100.00
2022-09-02T01:03:36.992Z,100.00
2022-09-02T01:06:03.694Z,100.00
2022-09-02T01:08:40.991Z,100.00
2022-09-02T01:11:11.194Z,100.00
2022-09-02T01:13:48.985Z,100.00
2022-09-02T01:16:39.641Z,100.00
2022-09-02T01:19:20.980Z,100.00
2022-09-02T01:21:50.246Z,100.00
2022-09-02T01:24:26.003Z,100.00
2022-09-02T01:27:01.000Z,100.00
2022-09-02T01:29:41.101Z,100.00
2022-09-02T01:32:16.817Z,100.00
2022-09-02T01:34:49.999Z,100.00
2022-09-02T01:37:17.351Z,100.00
2022-09-02T01:39:51.961Z,100.00
2022-09-02T01:42:19.924Z,100.00
2022-09-02T01:44:52.977Z,100.00
2022-09-02T01:47:22.751Z,100.00
2022-09-02T01:49:56.968Z,100.00
2022-09-02T01:52:31.958Z,100.00
2022-09-02T01:55:05.988Z,100.00
2022-09-02T01:57:32.838Z,100.00
2022-09-02T02:00:01.356Z,100.00
2022-09-02T02:02:34.989Z,100.00
2022-09-02T02:05:01.987Z,100.00
2022-09-02T02:07:35.011Z,100.00
2022-09-02T02:10:02.375Z,100.00
2022-09-02T02:12:29.149Z,100.00
2022-09-02T02:15:01.990Z,100.00
2022-09-02T02:17:35.962Z,100.00
2022-09-02T02:20:03.841Z,100.00
2022-09-02T02:22:37.981Z,100.00
2022-09-02T02:25:06.570Z,100.00
2022-09-02T02:27:39.981Z,100.00
2022-09-02T02:30:24.960Z,100.00
2022-09-02T02:32:58.143Z,100.00
2022-09-02T02:35:30.983Z,100.00
2022-09-02T02:37:57.972Z,100.00
2022-09-02T02:40:36.089Z,100.00
2022-09-02T02:43:03.814Z,100.00
2022-09-02T02:45:36.978Z,100.00
2022-09-02T02:48:03.996Z,100.00
2022-09-02T02:50:36.976Z,100.00
2022-09-02T02:53:03.914Z,100.00
2022-09-02T02:55:36.957Z,100.00
2022-09-02T02:58:03.647Z,100.00
2022-09-02T03:00:38.975Z,100.00
2022-09-02T03:03:09.011Z,100.00
2022-09-02T03:05:43.980Z,100.00
2022-09-02T03:08:10.798Z,100.00
2022-09-02T03:10:44.977Z,100.00
2022-09-02T03:13:12.083Z,100.00
2022-09-02T03:15:46.022Z,100.00
2022-09-02T03:18:12.835Z,100.00
2022-09-02T03:20:40.403Z,100.00
2022-09-02T03:23:13.986Z,100.00
2022-09-02T03:25:49.961Z,100.00
2022-09-02T03:28:23.979Z,100.00
2022-09-02T03:31:04.177Z,100.00
2022-09-02T03:33:37.974Z,100.00
2022-09-02T03:36:10.964Z,100.00
2022-09-02T03:38:37.641Z,100.00
2022-09-02T03:41:10.961Z,100.00
2022-09-02T03:43:37.855Z,100.00
2022-09-02T03:46:12.020Z,100.00
2022-09-02T03:48:44.977Z,100.00
2022-09-02T03:51:12.508Z,100.00
2022-09-02T03:53:45.967Z,100.00
2022-09-02T03:56:15.545Z,100.00
2022-09-02T03:58:50.997Z,100.00
2022-09-02T04:01:23.743Z,100.00
2022-09-02T04:03:56.974Z,100.00
2022-09-02T04:06:26.221Z,100.00
2022-09-02T04:09:05.968Z,100.00
2022-09-02T04:11:32.922Z,100.00
2022-09-02T04:14:05.959Z,100.00
2022-09-02T04:16:39.968Z,100.00
2022-09-02T04:19:08.648Z,100.00
2022-09-02T04:21:38.271Z,100.00
2022-09-02T04:24:15.977Z,100.00
2022-09-02T04:26:48.972Z,100.00
2022-09-02T04:29:35.968Z,100.00
2022-09-02T04:32:09.958Z,100.00
2022-09-02T04:34:36.626Z,100.00
2022-09-02T04:37:09.954Z,100.00
2022-09-02T04:39:42.962Z,100.00
2022-09-02T04:42:09.663Z,100.00
2022-09-02T04:44:42.938Z,100.00
2022-09-02T04:47:09.596Z,100.00
2022-09-02T04:49:36.459Z,100.00
2022-09-02T04:52:09.957Z,100.00
2022-09-02T04:54:43.935Z,100.00
2022-09-02T04:57:16.959Z,100.00
2022-09-02T04:59:43.795Z,100.00
2022-09-02T05:02:19.010Z,100.00
2022-09-02T05:04:46.301Z,100.00
2022-09-02T05:07:19.936Z,100.00
2022-09-02T05:09:46.639Z,100.00
2022-09-02T05:12:24.938Z,100.00
2022-09-02T05:14:51.769Z,100.00
2022-09-02T05:17:25.932Z,100.00
2022-09-02T05:19:53.278Z,100.00
2022-09-02T05:22:26.939Z,100.00
2022-09-02T05:24:53.994Z,100.00
2022-09-02T05:27:26.958Z,100.00
2022-09-02T05:30:05.933Z,100.00
2022-09-02T05:32:45.931Z,100.00
2022-09-02T05:35:25.949Z,100.00
2022-09-02T05:37:53.828Z,100.00
2022-09-02T05:40:29.943Z,100.00
2022-09-02T05:42:56.576Z,100.00
2022-09-02T05:45:30.935Z,100.00
2022-09-02T05:47:57.647Z,100.00
2022-09-02T05:50:31.925Z,100.00
2022-09-02T05:52:58.686Z,100.00
2022-09-02T05:55:31.953Z,100.00
2022-09-02T05:57:59.333Z,100.00
2022-09-02T06:00:32.930Z,100.00
2022-09-02T06:02:59.748Z,100.00
2022-09-02T06:05:33.936Z,100.00
2022-09-02T06:08:06.922Z,100.00
2022-09-02T06:10:40.919Z,100.00
2022-09-02T06:13:08.148Z,100.00
2022-09-02T06:15:40.964Z,100.00
2022-09-02T06:18:07.683Z,100.00
2022-09-02T06:20:41.934Z,100.00
2022-09-02T06:23:08.839Z,100.00
2022-09-02T06:25:46.921Z,100.00
2022-09-02T06:28:15.105Z,100.00
2022-09-02T06:30:54.962Z,100.00
2022-09-02T06:33:21.814Z,100.00
2022-09-02T06:35:50.059Z,100.00
2022-09-02T06:38:23.902Z,100.00
2022-09-02T06:40:59.922Z,100.00
2022-09-02T06:43:41.292Z,100.00
2022-09-02T06:46:19.524Z,100.00
2022-09-02T06:48:52.925Z,100.00
2022-09-02T06:51:32.038Z,100.00
2022-09-02T06:54:06.939Z,100.00
2022-09-02T06:56:34.701Z,100.00
2022-09-02T06:59:08.924Z,100.00
2022-09-02T07:01:37.002Z,100.00
2022-09-02T07:04:29.946Z,100.00
2022-09-02T07:06:57.838Z,100.00
2022-09-02T07:09:39.938Z,100.00
2022-09-02T07:12:06.815Z,100.00
2022-09-02T07:14:45.916Z,100.00
2022-09-02T07:17:23.906Z,100.00
2022-09-02T07:19:51.200Z,100.00
2022-09-02T07:22:24.923Z,100.00
2022-09-02T07:24:51.746Z,100.00
2022-09-02T07:27:20.330Z,100.00
2022-09-02T07:29:55.905Z,100.00
2022-09-02T07:32:29.028Z,100.00
2022-09-02T07:35:01.964Z,100.00
2022-09-02T07:37:28.608Z,100.00
2022-09-02T07:40:01.912Z,100.00
2022-09-02T07:42:34.961Z,100.00
2022-09-02T07:45:07.916Z,100.00
2022-09-02T07:47:34.670Z,100.00
2022-09-02T07:50:20.767Z,100.00
2022-09-02T07:52:50.532Z,100.00
2022-09-02T07:55:23.906Z,100.00
2022-09-02T07:57:51.208Z,100.00
2022-09-02T08:00:26.883Z,100.00
2022-09-02T08:03:00.996Z,100.00
2022-09-02T08:05:35.922Z,100.00
2022-09-02T08:08:04.189Z,100.00
2022-09-02T08:10:42.895Z,100.00
2022-09-02T08:13:16.900Z,100.00
2022-09-02T08:15:44.723Z,100.00
2022-09-02T08:18:21.277Z,100.00
2022-09-02T08:20:49.078Z,100.00
2022-09-02T08:23:36.052Z,100.00
2022-09-02T08:26:11.896Z,100.00
2022-09-02T08:28:45.890Z,100.00
2022-09-02T08:31:32.957Z,100.00
2022-09-02T08:34:00.376Z,100.00
2022-09-02T08:36:34.905Z,100.00
2022-09-02T08:39:09.896Z,100.00
2022-09-02T08:41:48.774Z,100.00
2022-09-02T08:44:27.906Z,100.00
2022-09-02T08:46:59.388Z,100.00
2022-09-02T08:49:39.885Z,100.00
2022-09-02T08:52:06.877Z,100.00
2022-09-02T08:55:06.907Z,100.00
2022-09-02T08:57:33.691Z,100.00
2022-09-02T09:00:08.878Z,100.00
2022-09-02T09:03:02.909Z,100.00
2022-09-02T09:06:06.925Z,100.00
2022-09-02T09:08:53.519Z,100.00
2022-09-02T09:11:58.926Z,100.00
2022-09-02T09:15:08.967Z,100.00
2022-09-02T09:18:11.937Z,100.00
2022-09-02T09:20:59.404Z,100.00
2022-09-02T09:23:53.919Z,100.00
2022-09-02T09:26:48.891Z,100.00
2022-09-02T09:29:55.925Z,100.00
2022-09-02T09:32:56.892Z,100.00
2022-09-02T09:35:49.990Z,100.00
2022-09-02T09:38:44.886Z,100.00
2022-09-02T09:41:32.209Z,100.00
2022-09-02T09:44:47.939Z,100.00
2022-09-02T09:47:41.883Z,100.00
2022-09-02T09:50:29.126Z,100.00
2022-09-02T09:53:38.892Z,100.00
2022-09-02T09:56:29.296Z,100.00
2022-09-02T09:59:56.893Z,100.00
2022-09-02T10:03:02.926Z,100.00
2022-09-02T10:05:55.264Z,100.00
2022-09-02T10:08:59.162Z,100.00
2022-09-02T10:11:56.615Z,100.00
2022-09-02T10:14:55.909Z,99.83
2022-09-02T10:17:58.365Z,95.38
2022-09-02T10:21:15.052Z,98.82
2022-09-02T10:24:21.265Z,94.78
2022-09-02T10:27:21.899Z,85.79
2022-09-02T10:30:31.886Z,77.05
2022-09-02T10:33:40.905Z,80.27
2022-09-02T10:36:44.925Z,98.05
2022-09-02T10:39:57.483Z,65.11
2022-09-02T10:42:50.886Z,56.69
2022-09-02T10:45:40.876Z,87.47
2022-09-02T10:48:53.893Z,58.21
2022-09-02T10:52:24.863Z,61.73
2022-09-02T10:55:26.994Z,56.22
2022-09-02T10:58:50.926Z,56.84
2022-09-02T11:02:02.873Z,55.71
2022-09-02T11:05:22.870Z,57.84
2022-09-02T11:08:28.328Z,55.39
2022-09-02T11:11:07.190Z,51.84
2022-09-02T11:13:58.942Z,53.10
2022-09-02T11:17:01.972Z,64.75
2022-09-02T11:19:55.885Z,60.43
2022-09-02T11:22:40.179Z,62.89
2022-09-02T11:25:34.865Z,59.53
2022-09-02T11:28:21.364Z,59.85
2022-09-02T11:31:18.852Z,70.77
2022-09-02T11:33:58.939Z,62.91
2022-09-02T11:36:26.396Z,57.91
2022-09-02T11:39:36.613Z,55.43
2022-09-02T11:43:10.864Z,59.07
2022-09-02T11:45:51.929Z,60.97
2022-09-02T11:48:41.174Z,65.86
2022-09-02T11:51:48.854Z,63.83
2022-09-02T11:54:19.473Z,64.77
2022-09-02T11:56:57.851Z,63.41
2022-09-02T11:59:59.889Z,58.88
2022-09-02T12:02:38.892Z,63.08
2022-09-02T12:05:31.058Z,59.80
2022-09-02T12:08:05.862Z,59.84
2022-09-02T12:10:51.892Z,62.76
2022-09-02T12:13:41.175Z,53.45
2022-09-02T12:16:27.915Z,51.69
2022-09-02T12:19:00.889Z,50.15
2022-09-02T12:21:36.871Z,53.23
2022-09-02T12:24:17.847Z,56.22
2022-09-02T12:26:50.852Z,56.86
2022-09-02T12:29:18.398Z,51.34
2022-09-02T12:32:00.005Z,57.26
2022-09-02T12:34:28.713Z,53.67
2022-09-02T12:37:03.861Z,52.33
2022-09-02T12:39:41.862Z,54.42
2022-09-02T12:42:17.874Z,54.33
2022-09-02T12:45:30.865Z,51.69
2022-09-02T12:48:17.861Z,53.27
2022-09-02T12:50:50.895Z,52.18
2022-09-02T12:53:32.451Z,56.80
2022-09-02T12:56:19.844Z,53.14
2022-09-02T12:59:01.597Z,50.88
2022-09-02T13:01:53.995Z,49.95
2022-09-02T13:04:59.881Z,50.44
2022-09-02T13:08:12.862Z,47.87
2022-09-02T13:11:26.344Z,51.52
2022-09-02T13:14:17.849Z,48.81
2022-09-02T13:16:53.994Z,49.21
2022-09-02T13:19:41.881Z,48.85
2022-09-02T13:22:35.864Z,48.32
2022-09-02T13:25:49.969Z,47.15
2022-09-02T13:28:52.000Z,42.15
2022-09-02T13:31:36.870Z,47.36
2022-09-02T13:34:08.211Z,44.05
2022-09-02T13:36:43.878Z,43.53
2022-09-02T13:39:24.253Z,43.08
2022-09-02T13:41:57.841Z,40.85
2022-09-02T13:44:31.769Z,40.81
2022-09-02T13:47:22.938Z,39.84
2022-09-02T13:49:52.010Z,39.87
2022-09-02T13:53:01.149Z,41.21
2022-09-02T13:55:17.059Z,44.05
2022-09-02T13:58:05.842Z,40.02
2022-09-02T14:00:42.959Z,39.95
2022-09-02T14:03:28.201Z,41.52
2022-09-02T14:05:57.570Z,43.42
2022-09-02T14:08:35.838Z,40.55
2022-09-02T14:11:08.398Z,39.21
2022-09-02T14:13:42.849Z,41.03
2022-09-02T14:16:40.956Z,40.74
2022-09-02T14:19:09.049Z,39.46
2022-09-02T14:21:44.855Z,40.21
2022-09-02T14:24:22.842Z,38.74
2022-09-02T14:26:53.111Z,40.33
2022-09-02T14:29:27.860Z,38.03
2022-09-02T14:32:22.855Z,40.19
2022-09-02T14:35:08.618Z,45.10
2022-09-02T14:37:58.841Z,40.68
2022-09-02T14:40:44.842Z,41.69
2022-09-02T14:43:17.527Z,42.92
2022-09-02T14:45:56.912Z,37.69
2022-09-02T14:48:26.998Z,40.18
2022-09-02T14:51:09.857Z,40.21
2022-09-02T14:53:37.703Z,40.01
2022-09-02T14:56:12.890Z,39.02
2022-09-02T14:58:39.638Z,38.97
2022-09-02T15:01:14.954Z,41.22
2022-09-02T15:03:50.848Z,45.15
2022-09-02T15:06:18.615Z,40.93
2022-09-02T15:08:51.860Z,41.08
2022-09-02T15:11:21.229Z,39.95
2022-09-02T15:13:54.879Z,40.98
2022-09-02T15:16:27.896Z,39.84
2022-09-02T15:19:01.869Z,43.06
2022-09-02T15:21:28.677Z,41.04
2022-09-02T15:24:01.852Z,40.91
2022-09-02T15:26:36.838Z,40.76
2022-09-02T15:29:10.865Z,39.06
2022-09-02T15:31:43.974Z,40.56
2022-09-02T15:34:24.858Z,41.81
2022-09-02T15:36:58.847Z,43.90
2022-09-02T15:39:26.204Z,39.92
2022-09-02T15:42:01.848Z,42.98
2022-09-02T15:44:29.398Z,42.46
2022-09-02T15:47:03.856Z,45.73
2022-09-02T15:49:37.062Z,43.22
2022-09-02T15:52:10.874Z,43.11
2022-09-02T15:54:37.577Z,44.59
2022-09-02T15:57:10.836Z,47.84
2022-09-02T15:59:43.891Z,46.34
2022-09-02T16:02:10.593Z,46.91
2022-09-02T16:04:38.507Z,46.51
2022-09-02T16:07:16.756Z,45.73
2022-09-02T16:09:50.870Z,49.92
2022-09-02T16:12:24.832Z,46.72
2022-09-02T16:14:57.860Z,46.37
2022-09-02T16:17:24.614Z,46.51
2022-09-02T16:19:57.937Z,47.07
2022-09-02T16:22:24.649Z,52.15
2022-09-02T16:24:57.857Z,51.07
2022-09-02T16:27:49.840Z,53.13
2022-09-02T16:30:30.161Z,52.52
2022-09-02T16:33:11.851Z,52.12
2022-09-02T16:35:39.295Z,53.72
2022-09-02T16:38:12.836Z,53.92
2022-09-02T16:40:39.579Z,55.56
2022-09-02T16:43:12.846Z,57.02
2022-09-02T16:45:45.914Z,58.06
2022-09-02T16:48:21.441Z,55.64
2022-09-02T16:50:52.300Z,57.28
2022-09-02T16:53:25.892Z,60.28
2022-09-02T16:55:52.642Z,59.34
2022-09-02T16:58:25.864Z,60.09
2022-09-02T17:00:53.132Z,62.71
2022-09-02T17:03:26.848Z,64.11
2022-09-02T17:05:59.851Z,63.57
2022-09-02T17:08:26.556Z,64.27
2022-09-02T17:11:18.920Z,67.49
2022-09-02T17:14:15.241Z,68.95
2022-09-02T17:16:48.904Z,70.65
2022-09-02T17:19:32.079Z,72.72
2022-09-02T17:21:59.509Z,76.62
2022-09-02T17:24:37.859Z,76.10
2022-09-02T17:27:04.834Z,76.40
2022-09-02T17:29:55.234Z,78.85
2022-09-02T17:32:35.903Z,77.82
2022-09-02T17:35:08.861Z,81.54
2022-09-02T17:37:43.868Z,81.60
2022-09-02T17:40:33.562Z,82.54
2022-09-02T17:43:06.817Z,84.86
2022-09-02T17:45:39.898Z,87.66
2022-09-02T17:48:32.279Z,90.84
2022-09-02T17:51:00.877Z,92.74
2022-09-02T17:53:29.507Z,95.46
2022-09-02T17:56:11.837Z,99.18
2022-09-02T17:58:50.884Z,96.58
2022-09-02T18:01:31.062Z,99.80
2022-09-02T18:04:25.842Z,99.97
2022-09-02T18:06:58.981Z,99.39
2022-09-02T18:09:35.277Z,100.00
2022-09-02T18:12:02.251Z,100.00
2022-09-02T18:14:57.882Z,98.13
2022-09-02T18:18:11.843Z,98.15
2022-09-02T18:20:44.251Z,98.52
2022-09-02T18:23:42.872Z,98.44
2022-09-02T18:26:54.871Z,100.00
2022-09-02T18:29:58.612Z,100.00
2022-09-02T18:33:26.846Z,100.00
2022-09-02T18:36:05.910Z,100.00
2022-09-02T18:39:06.865Z,100.00
2022-09-02T18:42:18.016Z,100.00
2022-09-02T18:45:00.043Z,100.00
2022-09-02T18:47:38.821Z,100.00
2022-09-02T18:50:07.167Z,100.00
2022-09-02T18:52:43.060Z,100.00
2022-09-02T18:55:13.921Z,100.00
2022-09-02T18:58:04.847Z,100.00
2022-09-02T19:00:47.950Z,100.00
2022-09-02T19:03:14.932Z,100.00
2022-09-02T19:05:48.856Z,100.00
2022-09-02T19:08:33.027Z,100.00
2022-09-02T19:11:16.815Z,100.00
2022-09-02T19:13:57.011Z,100.00
2022-09-02T19:16:33.175Z,100.00
2022-09-02T19:19:06.830Z,100.00
2022-09-02T19:21:48.164Z,100.00
2022-09-02T19:24:28.873Z,100.00
2022-09-02T19:27:20.241Z,100.00
2022-09-02T19:29:57.819Z,100.00
2022-09-02T19:32:34.074Z,100.00
2022-09-02T19:35:11.985Z,100.00
2022-09-02T19:37:44.700Z,100.00
2022-09-02T19:40:18.881Z,100.00
2022-09-02T19:42:51.817Z,100.00
2022-09-02T19:45:18.672Z,100.00
2022-09-02T19:48:17.004Z,100.00
2022-09-02T19:50:42.205Z,100.00
2022-09-02T19:53:34.816Z,100.00
2022-09-02T19:56:08.031Z,100.00
2022-09-02T19:58:36.364Z,100.00
2022-09-02T20:01:13.025Z,100.00
2022-09-02T20:03:46.836Z,100.00
2022-09-02T20:06:13.622Z,100.00
2022-09-02T20:08:46.827Z,100.00
2022-09-02T20:11:13.782Z,100.00
2022-09-02T20:13:49.894Z,100.00
2022-09-02T20:16:22.716Z,100.00
2022-09-02T20:18:58.902Z,100.00
2022-09-02T20:21:33.799Z,100.00
2022-09-02T20:24:14.819Z,100.00
2022-09-02T20:27:14.123Z,100.00
2022-09-02T20:29:54.920Z,100.00
2022-09-02T20:32:49.984Z,100.00
2022-09-02T20:35:40.814Z,100.00
2022-09-02T20:38:27.827Z,100.00
2022-09-02T20:41:35.890Z,100.00
2022-09-02T20:44:24.083Z,100.00
2022-09-02T20:47:00.939Z,100.00
2022-09-02T20:49:36.775Z,100.00
2022-09-02T20:52:25.903Z,100.00
2022-09-02T20:55:02.668Z,100.00
2022-09-02T20:57:56.785Z,100.00
2022-09-02T21:00:29.861Z,100.00
2022-09-02T21:03:06.423Z,100.00
2022-09-02T21:05:43.877Z,100.00
2022-09-02T21:08:22.288Z,100.00
2022-09-02T21:11:00.790Z,100.00
2022-09-02T21:13:40.295Z,100.00
2022-09-02T21:16:22.853Z,100.00
2022-09-02T21:19:23.828Z,100.00
2022-09-02T21:22:10.047Z,100.00
2022-09-02T21:25:05.862Z,100.00
2022-09-02T21:27:51.806Z,100.00
2022-09-02T21:30:22.057Z,100.00
2022-09-02T21:33:12.837Z,100.00
2022-09-02T21:35:51.541Z,100.00
2022-09-02T21:38:51.802Z,100.00
2022-09-02T21:41:36.647Z,100.00
2022-09-02T21:44:24.800Z,100.00
2022-09-02T21:47:34.848Z,100.00
2022-09-02T21:50:24.863Z,100.00
2022-09-02T21:53:23.989Z,100.00
2022-09-02T21:56:05.773Z,100.00
2022-09-02T21:59:11.809Z,100.00
2022-09-02T22:02:03.805Z,100.00
2022-09-02T22:04:47.834Z,100.00
2022-09-02T22:07:39.805Z,100.00
2022-09-02T22:10:19.846Z,100.00
2022-09-02T22:12:57.409Z,100.00
2022-09-02T22:16:07.393Z,100.00
2022-09-02T22:19:13.135Z,100.00
2022-09-02T22:21:49.587Z,100.00
2022-09-02T22:24:26.813Z,100.00
2022-09-02T22:26:58.796Z,100.00
2022-09-02T22:29:42.786Z,100.00
2022-09-02T22:32:33.868Z,100.00
2022-09-02T22:35:16.804Z,100.00
2022-09-02T22:38:34.832Z,100.00
2022-09-02T22:41:26.407Z,100.00
2022-09-02T22:44:17.806Z,100.00
2022-09-02T22:47:08.405Z,100.00
2022-09-02T22:50:09.815Z,100.00
2022-09-02T22:52:54.871Z,100.00
2022-09-02T22:55:44.824Z,100.00
2022-09-02T22:58:57.795Z,100.00
2022-09-02T23:02:01.911Z,100.00
2022-09-02T23:04:46.775Z,100.00
2022-09-02T23:07:20.788Z,100.00
2022-09-02T23:09:49.046Z,100.00
2022-09-02T23:12:47.965Z,100.00
2022-09-02T23:15:58.627Z,100.00
2022-09-02T23:19:04.811Z,100.00
2022-09-02T23:22:05.799Z,100.00
2022-09-02T23:25:02.936Z,100.00
2022-09-02T23:27:50.811Z,100.00
2022-09-02T23:30:18.291Z,100.00
2022-09-02T23:33:37.773Z,100.00
2022-09-02T23:36:27.769Z,100.00
2022-09-02T23:39:13.782Z,100.00
2022-09-02T23:41:51.786Z,100.00
2022-09-02T23:44:18.431Z,100.00
2022-09-02T23:47:22.770Z,100.00
2022-09-02T23:50:23.796Z,100.00
2022-09-02T23:53:06.796Z,100.00
2022-09-02T23:56:09.772Z,100.00
2022-09-02T23:59:18.758Z,100.00
